sensor_id;sensor_type;location;lat;lon;timestamp;P1;durP1;ratioP1;P2;durP2;ratioP2
21643;SDS011;10983;51.982;9.226;2023-05-15T00:01:08;0.17;;;0.17;;
21643;SDS011;10983;51.982;9.226;2023-05-15T00:03:35;0.10;;;0.10;;
21643;SDS011;10983;51.982;9.226;2023-05-15T00:06:03;0.20;;;0.20;;
21643;SDS011;10983;51.982;9.226;2023-05-15T00:08:31;0.52;;;0.52;;
21643;SDS011;10983;51.982;9.226;2023-05-15T00:10:58;0.10;;;0.10;;
21643;SDS011;10983;51.982;9.226;2023-05-15T00:13:28;1.20;;;0.43;;
21643;SDS011;10983;51.982;9.226;2023-05-15T00:15:56;0.20;;;0.20;;
21643;SDS011;10983;51.982;9.226;2023-05-15T00:18:24;0.28;;;0.28;;
21643;SDS011;10983;51.982;9.226;2023-05-15T00:20:52;0.10;;;0.10;;
21643;SDS011;10983;51.982;9.226;2023-05-15T00:23:19;1.50;;;1.40;;
21643;SDS011;10983;51.982;9.226;2023-05-15T00:25:47;0.15;;;0.15;;
21643;SDS011;10983;51.982;9.226;2023-05-15T00:28:14;2.50;;;1.38;;
21643;SDS011;10983;51.982;9.226;2023-05-15T00:30:43;1.55;;;1.45;;
21643;SDS011;10983;51.982;9.226;2023-05-15T00:33:10;0.40;;;0.40;;
21643;SDS011;10983;51.982;9.226;2023-05-15T00:35:38;0.00;;;0.00;;
21643;SDS011;10983;51.982;9.226;2023-05-15T00:38:05;0.10;;;0.10;;
21643;SDS011;10983;51.982;9.226;2023-05-15T00:40:33;0.10;;;0.10;;
21643;SDS011;10983;51.982;9.226;2023-05-15T00:43:02;0.10;;;0.10;;
21643;SDS011;10983;51.982;9.226;2023-05-15T00:45:31;0.63;;;0.63;;
21643;SDS011;10983;51.982;9.226;2023-05-15T00:47:59;0.10;;;0.10;;
21643;SDS011;10983;51.982;9.226;2023-05-15T00:50:28;0.10;;;0.10;;
21643;SDS011;10983;51.982;9.226;2023-05-15T00:52:58;0.00;;;0.00;;
21643;SDS011;10983;51.982;9.226;2023-05-15T00:55:26;0.10;;;0.10;;
21643;SDS011;10983;51.982;9.226;2023-05-15T00:57:55;0.20;;;0.20;;
21643;SDS011;10983;51.982;9.226;2023-05-15T01:00:23;0.00;;;0.00;;
21643;SDS011;10983;51.982;9.226;2023-05-15T01:02:52;0.10;;;0.10;;
21643;SDS011;10983;51.982;9.226;2023-05-15T01:05:21;0.10;;;0.10;;
21643;SDS011;10983;51.982;9.226;2023-05-15T01:07:51;0.80;;;0.80;;
21643;SDS011;10983;51.982;9.226;2023-05-15T01:10:23;0.10;;;0.10;;
21643;SDS011;10983;51.982;9.226;2023-05-15T01:12:52;3.20;;;1.45;;
21643;SDS011;10983;51.982;9.226;2023-05-15T01:15:20;0.10;;;0.10;;
21643;SDS011;10983;51.982;9.226;2023-05-15T01:17:50;3.08;;;1.10;;
21643;SDS011;10983;51.982;9.226;2023-05-15T01:20:17;2.50;;;2.30;;
21643;SDS011;10983;51.982;9.226;2023-05-15T01:22:50;0.50;;;0.50;;
21643;SDS011;10983;51.982;9.226;2023-05-15T01:25:53;0.47;;;0.47;;
21643;SDS011;10983;51.982;9.226;2023-05-15T01:28:43;0.25;;;0.25;;
21643;SDS011;10983;51.982;9.226;2023-05-15T01:31:15;0.10;;;0.10;;
21643;SDS011;10983;51.982;9.226;2023-05-15T01:33:49;0.10;;;0.10;;
21643;SDS011;10983;51.982;9.226;2023-05-15T01:36:23;0.10;;;0.10;;
21643;SDS011;10983;51.982;9.226;2023-05-15T01:38:56;0.40;;;0.40;;
21643;SDS011;10983;51.982;9.226;2023-05-15T01:41:28;0.40;;;0.40;;
21643;SDS011;10983;51.982;9.226;2023-05-15T01:43:59;0.10;;;0.10;;
21643;SDS011;10983;51.982;9.226;2023-05-15T01:46:30;0.10;;;0.10;;
21643;SDS011;10983;51.982;9.226;2023-05-15T01:49:03;0.10;;;0.10;;
21643;SDS011;10983;51.982;9.226;2023-05-15T01:51:35;0.10;;;0.10;;
21643;SDS011;10983;51.982;9.226;2023-05-15T01:54:05;0.10;;;0.10;;
21643;SDS011;10983;51.982;9.226;2023-05-15T01:56:34;0.00;;;0.00;;
21643;SDS011;10983;51.982;9.226;2023-05-15T01:59:03;0.13;;;0.13;;
21643;SDS011;10983;51.982;9.226;2023-05-15T02:01:31;0.52;;;0.52;;
21643;SDS011;10983;51.982;9.226;2023-05-15T02:03:59;0.10;;;0.10;;
21643;SDS011;10983;51.982;9.226;2023-05-15T02:06:28;0.10;;;0.10;;
21643;SDS011;10983;51.982;9.226;2023-05-15T02:08:56;0.82;;;0.82;;
21643;SDS011;10983;51.982;9.226;2023-05-15T02:11:24;1.45;;;1.35;;
21643;SDS011;10983;51.982;9.226;2023-05-15T02:13:52;0.50;;;0.50;;
21643;SDS011;10983;51.982;9.226;2023-05-15T02:16:24;0.77;;;0.77;;
21643;SDS011;10983;51.982;9.226;2023-05-15T02:18:53;0.65;;;0.65;;
21643;SDS011;10983;51.982;9.226;2023-05-15T02:21:21;0.30;;;0.30;;
21643;SDS011;10983;51.982;9.226;2023-05-15T02:23:48;0.75;;;0.75;;
21643;SDS011;10983;51.982;9.226;2023-05-15T02:26:22;4.85;;;3.10;;
21643;SDS011;10983;51.982;9.226;2023-05-15T02:29:00;0.10;;;0.10;;
21643;SDS011;10983;51.982;9.226;2023-05-15T02:31:39;0.10;;;0.10;;
21643;SDS011;10983;51.982;9.226;2023-05-15T02:34:15;0.10;;;0.10;;
21643;SDS011;10983;51.982;9.226;2023-05-15T02:36:48;0.90;;;0.90;;
21643;SDS011;10983;51.982;9.226;2023-05-15T02:39:20;0.10;;;0.10;;
21643;SDS011;10983;51.982;9.226;2023-05-15T02:41:50;0.10;;;0.10;;
21643;SDS011;10983;51.982;9.226;2023-05-15T02:44:19;0.45;;;0.45;;
21643;SDS011;10983;51.982;9.226;2023-05-15T02:46:49;0.50;;;0.50;;
21643;SDS011;10983;51.982;9.226;2023-05-15T02:49:17;0.10;;;0.10;;
21643;SDS011;10983;51.982;9.226;2023-05-15T02:51:45;0.10;;;0.10;;
21643;SDS011;10983;51.982;9.226;2023-05-15T02:54:12;0.10;;;0.10;;
21643;SDS011;10983;51.982;9.226;2023-05-15T02:56:41;0.10;;;0.10;;
21643;SDS011;10983;51.982;9.226;2023-05-15T02:59:08;0.38;;;0.38;;
21643;SDS011;10983;51.982;9.226;2023-05-15T03:01:36;1.17;;;1.15;;
21643;SDS011;10983;51.982;9.226;2023-05-15T03:04:05;0.45;;;0.45;;
21643;SDS011;10983;51.982;9.226;2023-05-15T03:06:32;0.20;;;0.20;;
21643;SDS011;10983;51.982;9.226;2023-05-15T03:09:00;3.05;;;2.63;;
21643;SDS011;10983;51.982;9.226;2023-05-15T03:11:27;0.10;;;0.10;;
21643;SDS011;10983;51.982;9.226;2023-05-15T03:13:54;2.75;;;2.30;;
21643;SDS011;10983;51.982;9.226;2023-05-15T03:16:22;0.10;;;0.10;;
21643;SDS011;10983;51.982;9.226;2023-05-15T03:18:49;0.20;;;0.20;;
21643;SDS011;10983;51.982;9.226;2023-05-15T03:21:18;0.10;;;0.10;;
21643;SDS011;10983;51.982;9.226;2023-05-15T03:23:46;0.10;;;0.10;;
21643;SDS011;10983;51.982;9.226;2023-05-15T03:26:13;0.10;;;0.10;;
21643;SDS011;10983;51.982;9.226;2023-05-15T03:28:40;0.10;;;0.10;;
21643;SDS011;10983;51.982;9.226;2023-05-15T03:31:08;0.32;;;0.32;;
21643;SDS011;10983;51.982;9.226;2023-05-15T03:33:36;0.20;;;0.20;;
21643;SDS011;10983;51.982;9.226;2023-05-15T03:36:04;0.60;;;0.60;;
21643;SDS011;10983;51.982;9.226;2023-05-15T03:38:33;0.10;;;0.10;;
21643;SDS011;10983;51.982;9.226;2023-05-15T03:41:01;0.10;;;0.10;;
21643;SDS011;10983;51.982;9.226;2023-05-15T03:43:29;0.20;;;0.20;;
21643;SDS011;10983;51.982;9.226;2023-05-15T03:45:57;0.10;;;0.10;;
21643;SDS011;10983;51.982;9.226;2023-05-15T03:48:25;0.10;;;0.10;;
21643;SDS011;10983;51.982;9.226;2023-05-15T03:50:52;0.57;;;0.57;;
21643;SDS011;10983;51.982;9.226;2023-05-15T03:53:21;0.10;;;0.10;;
21643;SDS011;10983;51.982;9.226;2023-05-15T03:55:50;1.90;;;1.88;;
21643;SDS011;10983;51.982;9.226;2023-05-15T03:58:17;0.32;;;0.32;;
21643;SDS011;10983;51.982;9.226;2023-05-15T04:00:45;0.28;;;0.28;;
21643;SDS011;10983;51.982;9.226;2023-05-15T04:03:12;0.10;;;0.10;;
21643;SDS011;10983;51.982;9.226;2023-05-15T04:05:40;0.73;;;0.73;;
21643;SDS011;10983;51.982;9.226;2023-05-15T04:08:07;0.10;;;0.10;;
21643;SDS011;10983;51.982;9.226;2023-05-15T04:10:36;0.15;;;0.15;;
21643;SDS011;10983;51.982;9.226;2023-05-15T04:13:04;0.13;;;0.13;;
21643;SDS011;10983;51.982;9.226;2023-05-15T04:15:32;1.13;;;1.13;;
21643;SDS011;10983;51.982;9.226;2023-05-15T04:17:59;2.70;;;2.45;;
21643;SDS011;10983;51.982;9.226;2023-05-15T04:20:27;0.77;;;0.77;;
21643;SDS011;10983;51.982;9.226;2023-05-15T04:22:54;3.00;;;2.80;;
21643;SDS011;10983;51.982;9.226;2023-05-15T04:25:22;6.03;;;3.10;;
21643;SDS011;10983;51.982;9.226;2023-05-15T04:27:50;5.15;;;3.05;;
21643;SDS011;10983;51.982;9.226;2023-05-15T04:30:18;0.10;;;0.10;;
21643;SDS011;10983;51.982;9.226;2023-05-15T04:32:48;0.82;;;0.82;;
21643;SDS011;10983;51.982;9.226;2023-05-15T04:35:16;0.20;;;0.20;;
21643;SDS011;10983;51.982;9.226;2023-05-15T04:37:44;3.78;;;3.47;;
21643;SDS011;10983;51.982;9.226;2023-05-15T04:40:11;0.10;;;0.10;;
21643;SDS011;10983;51.982;9.226;2023-05-15T04:42:41;0.35;;;0.35;;
21643;SDS011;10983;51.982;9.226;2023-05-15T04:45:08;1.42;;;1.10;;
21643;SDS011;10983;51.982;9.226;2023-05-15T04:47:37;0.30;;;0.30;;
21643;SDS011;10983;51.982;9.226;2023-05-15T04:50:05;0.10;;;0.10;;
21643;SDS011;10983;51.982;9.226;2023-05-15T04:52:34;0.17;;;0.17;;
21643;SDS011;10983;51.982;9.226;2023-05-15T04:55:02;0.65;;;0.65;;
21643;SDS011;10983;51.982;9.226;2023-05-15T04:57:32;0.35;;;0.35;;
21643;SDS011;10983;51.982;9.226;2023-05-15T05:00:00;1.38;;;1.38;;
21643;SDS011;10983;51.982;9.226;2023-05-15T05:02:30;2.28;;;1.30;;
21643;SDS011;10983;51.982;9.226;2023-05-15T05:04:59;0.10;;;0.10;;
21643;SDS011;10983;51.982;9.226;2023-05-15T05:07:27;0.28;;;0.28;;
21643;SDS011;10983;51.982;9.226;2023-05-15T05:09:54;0.10;;;0.10;;
21643;SDS011;10983;51.982;9.226;2023-05-15T05:12:21;0.55;;;0.55;;
21643;SDS011;10983;51.982;9.226;2023-05-15T05:14:51;1.15;;;1.15;;
21643;SDS011;10983;51.982;9.226;2023-05-15T05:17:18;0.13;;;0.13;;
21643;SDS011;10983;51.982;9.226;2023-05-15T05:19:45;0.22;;;0.22;;
21643;SDS011;10983;51.982;9.226;2023-05-15T05:22:14;1.60;;;1.50;;
21643;SDS011;10983;51.982;9.226;2023-05-15T05:24:42;0.10;;;0.10;;
21643;SDS011;10983;51.982;9.226;2023-05-15T05:27:09;1.10;;;1.08;;
21643;SDS011;10983;51.982;9.226;2023-05-15T05:29:36;1.20;;;0.95;;
21643;SDS011;10983;51.982;9.226;2023-05-15T05:32:05;0.10;;;0.10;;
21643;SDS011;10983;51.982;9.226;2023-05-15T05:34:33;0.10;;;0.10;;
21643;SDS011;10983;51.982;9.226;2023-05-15T05:37:01;0.75;;;0.63;;
21643;SDS011;10983;51.982;9.226;2023-05-15T05:39:29;0.10;;;0.10;;
21643;SDS011;10983;51.982;9.226;2023-05-15T05:41:57;1.20;;;1.20;;
21643;SDS011;10983;51.982;9.226;2023-05-15T05:44:24;1.75;;;1.75;;
21643;SDS011;10983;51.982;9.226;2023-05-15T05:46:52;0.63;;;0.63;;
21643;SDS011;10983;51.982;9.226;2023-05-15T05:49:19;1.15;;;0.88;;
21643;SDS011;10983;51.982;9.226;2023-05-15T05:51:47;0.10;;;0.10;;
21643;SDS011;10983;51.982;9.226;2023-05-15T05:54:14;0.10;;;0.10;;
21643;SDS011;10983;51.982;9.226;2023-05-15T05:56:45;6.47;;;6.18;;
21643;SDS011;10983;51.982;9.226;2023-05-15T05:59:12;0.30;;;0.30;;
21643;SDS011;10983;51.982;9.226;2023-05-15T06:01:40;1.15;;;1.08;;
21643;SDS011;10983;51.982;9.226;2023-05-15T06:04:10;0.25;;;0.25;;
21643;SDS011;10983;51.982;9.226;2023-05-15T06:06:37;0.10;;;0.10;;
21643;SDS011;10983;51.982;9.226;2023-05-15T06:09:06;0.10;;;0.10;;
21643;SDS011;10983;51.982;9.226;2023-05-15T06:11:34;0.00;;;0.00;;
21643;SDS011;10983;51.982;9.226;2023-05-15T06:14:03;0.45;;;0.45;;
21643;SDS011;10983;51.982;9.226;2023-05-15T06:16:33;0.05;;;0.05;;
21643;SDS011;10983;51.982;9.226;2023-05-15T06:19:01;0.00;;;0.00;;
21643;SDS011;10983;51.982;9.226;2023-05-15T06:21:29;0.10;;;0.10;;
21643;SDS011;10983;51.982;9.226;2023-05-15T06:23:56;0.10;;;0.10;;
21643;SDS011;10983;51.982;9.226;2023-05-15T06:26:24;0.00;;;0.00;;
21643;SDS011;10983;51.982;9.226;2023-05-15T06:28:52;0.10;;;0.10;;
21643;SDS011;10983;51.982;9.226;2023-05-15T06:31:20;0.10;;;0.10;;
21643;SDS011;10983;51.982;9.226;2023-05-15T06:33:48;0.32;;;0.32;;
21643;SDS011;10983;51.982;9.226;2023-05-15T06:36:15;0.98;;;0.98;;
21643;SDS011;10983;51.982;9.226;2023-05-15T06:38:43;0.03;;;0.03;;
21643;SDS011;10983;51.982;9.226;2023-05-15T06:41:10;0.40;;;0.40;;
21643;SDS011;10983;51.982;9.226;2023-05-15T06:43:37;0.30;;;0.30;;
21643;SDS011;10983;51.982;9.226;2023-05-15T06:46:05;2.90;;;2.72;;
21643;SDS011;10983;51.982;9.226;2023-05-15T06:48:34;0.65;;;0.65;;
21643;SDS011;10983;51.982;9.226;2023-05-15T06:51:02;2.28;;;2.17;;
21643;SDS011;10983;51.982;9.226;2023-05-15T06:53:29;2.13;;;1.98;;
21643;SDS011;10983;51.982;9.226;2023-05-15T06:55:57;1.10;;;1.10;;
21643;SDS011;10983;51.982;9.226;2023-05-15T06:58:24;1.10;;;1.10;;
21643;SDS011;10983;51.982;9.226;2023-05-15T07:00:52;0.30;;;0.30;;
21643;SDS011;10983;51.982;9.226;2023-05-15T07:03:21;0.20;;;0.20;;
21643;SDS011;10983;51.982;9.226;2023-05-15T07:05:50;0.38;;;0.38;;
21643;SDS011;10983;51.982;9.226;2023-05-15T07:08:18;0.25;;;0.22;;
21643;SDS011;10983;51.982;9.226;2023-05-15T07:10:48;2.90;;;2.75;;
21643;SDS011;10983;51.982;9.226;2023-05-15T07:13:16;0.70;;;0.70;;
21643;SDS011;10983;51.982;9.226;2023-05-15T07:15:44;0.20;;;0.20;;
21643;SDS011;10983;51.982;9.226;2023-05-15T07:18:11;0.30;;;0.30;;
21643;SDS011;10983;51.982;9.226;2023-05-15T07:20:39;1.40;;;1.30;;
21643;SDS011;10983;51.982;9.226;2023-05-15T07:23:07;0.15;;;0.15;;
21643;SDS011;10983;51.982;9.226;2023-05-15T07:25:35;0.45;;;0.45;;
21643;SDS011;10983;51.982;9.226;2023-05-15T07:28:03;0.90;;;0.63;;
21643;SDS011;10983;51.982;9.226;2023-05-15T07:30:31;0.00;;;0.00;;
21643;SDS011;10983;51.982;9.226;2023-05-15T07:32:58;0.50;;;0.43;;
21643;SDS011;10983;51.982;9.226;2023-05-15T07:35:26;0.10;;;0.10;;
21643;SDS011;10983;51.982;9.226;2023-05-15T07:37:54;1.65;;;1.17;;
21643;SDS011;10983;51.982;9.226;2023-05-15T07:40:22;1.95;;;1.88;;
21643;SDS011;10983;51.982;9.226;2023-05-15T07:42:50;0.50;;;0.50;;
21643;SDS011;10983;51.982;9.226;2023-05-15T07:45:17;0.70;;;0.70;;
21643;SDS011;10983;51.982;9.226;2023-05-15T07:47:45;1.85;;;1.65;;
21643;SDS011;10983;51.982;9.226;2023-05-15T07:50:13;0.88;;;0.88;;
21643;SDS011;10983;51.982;9.226;2023-05-15T07:52:41;1.35;;;1.25;;
21643;SDS011;10983;51.982;9.226;2023-05-15T07:55:09;1.05;;;1.05;;
21643;SDS011;10983;51.982;9.226;2023-05-15T07:57:38;1.00;;;1.00;;
21643;SDS011;10983;51.982;9.226;2023-05-15T08:00:06;3.83;;;0.98;;
21643;SDS011;10983;51.982;9.226;2023-05-15T08:02:38;1.48;;;1.38;;
21643;SDS011;10983;51.982;9.226;2023-05-15T08:05:06;1.33;;;1.30;;
21643;SDS011;10983;51.982;9.226;2023-05-15T08:07:34;1.25;;;1.15;;
21643;SDS011;10983;51.982;9.226;2023-05-15T08:10:01;0.30;;;0.30;;
21643;SDS011;10983;51.982;9.226;2023-05-15T08:12:31;0.43;;;0.43;;
21643;SDS011;10983;51.982;9.226;2023-05-15T08:15:00;0.70;;;0.70;;
21643;SDS011;10983;51.982;9.226;2023-05-15T08:17:29;0.60;;;0.45;;
21643;SDS011;10983;51.982;9.226;2023-05-15T08:19:57;0.05;;;0.05;;
21643;SDS011;10983;51.982;9.226;2023-05-15T08:22:24;0.75;;;0.75;;
21643;SDS011;10983;51.982;9.226;2023-05-15T08:24:52;1.55;;;0.75;;
21643;SDS011;10983;51.982;9.226;2023-05-15T08:27:19;0.00;;;0.00;;
21643;SDS011;10983;51.982;9.226;2023-05-15T08:29:47;0.03;;;0.03;;
21643;SDS011;10983;51.982;9.226;2023-05-15T08:32:15;0.10;;;0.10;;
21643;SDS011;10983;51.982;9.226;2023-05-15T08:34:43;1.10;;;0.60;;
21643;SDS011;10983;51.982;9.226;2023-05-15T08:37:10;2.92;;;2.42;;
21643;SDS011;10983;51.982;9.226;2023-05-15T08:39:38;1.67;;;1.58;;
21643;SDS011;10983;51.982;9.226;2023-05-15T08:42:07;2.05;;;1.95;;
21643;SDS011;10983;51.982;9.226;2023-05-15T08:44:36;0.22;;;0.22;;
21643;SDS011;10983;51.982;9.226;2023-05-15T08:47:06;2.83;;;1.52;;
21643;SDS011;10983;51.982;9.226;2023-05-15T08:49:50;1.00;;;1.00;;
21643;SDS011;10983;51.982;9.226;2023-05-15T08:52:25;4.75;;;1.25;;
21643;SDS011;10983;51.982;9.226;2023-05-15T08:54:54;0.45;;;0.45;;
21643;SDS011;10983;51.982;9.226;2023-05-15T08:57:21;0.55;;;0.55;;
21643;SDS011;10983;51.982;9.226;2023-05-15T08:59:49;0.98;;;0.98;;
21643;SDS011;10983;51.982;9.226;2023-05-15T09:02:18;1.25;;;1.17;;
21643;SDS011;10983;51.982;9.226;2023-05-15T09:04:49;13.15;;;3.42;;
21643;SDS011;10983;51.982;9.226;2023-05-15T09:07:16;1.83;;;1.48;;
21643;SDS011;10983;51.982;9.226;2023-05-15T09:09:44;1.35;;;1.20;;
21643;SDS011;10983;51.982;9.226;2023-05-15T09:12:13;4.55;;;3.53;;
21643;SDS011;10983;51.982;9.226;2023-05-15T09:14:41;4.75;;;3.85;;
21643;SDS011;10983;51.982;9.226;2023-05-15T09:17:09;5.40;;;4.10;;
21643;SDS011;10983;51.982;9.226;2023-05-15T09:19:37;2.75;;;2.47;;
21643;SDS011;10983;51.982;9.226;2023-05-15T09:22:14;4.47;;;1.90;;
21643;SDS011;10983;51.982;9.226;2023-05-15T09:24:43;2.03;;;1.63;;
21643;SDS011;10983;51.982;9.226;2023-05-15T09:27:13;2.60;;;2.40;;
21643;SDS011;10983;51.982;9.226;2023-05-15T09:29:41;3.13;;;2.83;;
21643;SDS011;10983;51.982;9.226;2023-05-15T09:32:09;2.28;;;2.10;;
21643;SDS011;10983;51.982;9.226;2023-05-15T09:34:38;7.88;;;3.03;;
21643;SDS011;10983;51.982;9.226;2023-05-15T09:37:07;1.70;;;1.60;;
21643;SDS011;10983;51.982;9.226;2023-05-15T09:39:40;1.48;;;1.38;;
21643;SDS011;10983;51.982;9.226;2023-05-15T09:42:08;1.85;;;1.75;;
21643;SDS011;10983;51.982;9.226;2023-05-15T09:44:39;3.78;;;3.47;;
21643;SDS011;10983;51.982;9.226;2023-05-15T09:47:08;0.20;;;0.20;;
21643;SDS011;10983;51.982;9.226;2023-05-15T09:49:36;2.67;;;2.08;;
21643;SDS011;10983;51.982;9.226;2023-05-15T09:52:06;1.73;;;1.63;;
21643;SDS011;10983;51.982;9.226;2023-05-15T09:54:35;3.03;;;2.80;;
21643;SDS011;10983;51.982;9.226;2023-05-15T09:57:07;1.60;;;1.50;;
21643;SDS011;10983;51.982;9.226;2023-05-15T09:59:41;0.55;;;0.55;;
21643;SDS011;10983;51.982;9.226;2023-05-15T10:02:11;2.80;;;2.53;;
21643;SDS011;10983;51.982;9.226;2023-05-15T10:04:39;3.50;;;3.20;;
21643;SDS011;10983;51.982;9.226;2023-05-15T10:07:07;0.68;;;0.68;;
21643;SDS011;10983;51.982;9.226;2023-05-15T10:09:34;2.65;;;2.15;;
21643;SDS011;10983;51.982;9.226;2023-05-15T10:12:02;3.47;;;2.90;;
21643;SDS011;10983;51.982;9.226;2023-05-15T10:14:32;2.60;;;2.40;;
21643;SDS011;10983;51.982;9.226;2023-05-15T10:17:00;3.53;;;3.13;;
21643;SDS011;10983;51.982;9.226;2023-05-15T10:19:28;1.52;;;1.42;;
21643;SDS011;10983;51.982;9.226;2023-05-15T10:21:56;1.48;;;1.38;;
21643;SDS011;10983;51.982;9.226;2023-05-15T10:24:26;1.75;;;1.08;;
21643;SDS011;10983;51.982;9.226;2023-05-15T10:26:56;7.65;;;2.60;;
21643;SDS011;10983;51.982;9.226;2023-05-15T10:29:24;4.47;;;2.83;;
21643;SDS011;10983;51.982;9.226;2023-05-15T10:31:56;1.83;;;1.73;;
21643;SDS011;10983;51.982;9.226;2023-05-15T10:34:26;8.80;;;3.25;;
21643;SDS011;10983;51.982;9.226;2023-05-15T10:36:55;1.80;;;1.70;;
21643;SDS011;10983;51.982;9.226;2023-05-15T10:39:22;1.95;;;1.85;;
21643;SDS011;10983;51.982;9.226;2023-05-15T10:41:53;22.08;;;3.10;;
21643;SDS011;10983;51.982;9.226;2023-05-15T10:44:22;2.47;;;1.98;;
21643;SDS011;10983;51.982;9.226;2023-05-15T10:46:49;4.40;;;3.45;;
21643;SDS011;10983;51.982;9.226;2023-05-15T10:49:19;4.63;;;4.22;;
21643;SDS011;10983;51.982;9.226;2023-05-15T10:51:47;1.40;;;1.30;;
21643;SDS011;10983;51.982;9.226;2023-05-15T10:54:15;0.65;;;0.65;;
21643;SDS011;10983;51.982;9.226;2023-05-15T10:56:43;3.30;;;3.00;;
21643;SDS011;10983;51.982;9.226;2023-05-15T10:59:11;2.42;;;2.22;;
21643;SDS011;10983;51.982;9.226;2023-05-15T11:01:40;5.03;;;2.22;;
21643;SDS011;10983;51.982;9.226;2023-05-15T11:04:09;1.77;;;1.67;;
21643;SDS011;10983;51.982;9.226;2023-05-15T11:06:40;3.35;;;3.05;;
21643;SDS011;10983;51.982;9.226;2023-05-15T11:12:02;5.70;;;4.30;;
21643;SDS011;10983;51.982;9.226;2023-05-15T11:14:31;2.65;;;2.35;;
21643;SDS011;10983;51.982;9.226;2023-05-15T11:17:03;0.75;;;0.75;;
21643;SDS011;10983;51.982;9.226;2023-05-15T11:22:30;7.03;;;3.78;;
21643;SDS011;10983;51.982;9.226;2023-05-15T11:25:02;3.50;;;3.20;;
21643;SDS011;10983;51.982;9.226;2023-05-15T11:27:31;6.63;;;4.25;;
21643;SDS011;10983;51.982;9.226;2023-05-15T11:32:42;6.75;;;4.55;;
21643;SDS011;10983;51.982;9.226;2023-05-15T11:35:18;5.65;;;4.82;;
21643;SDS011;10983;51.982;9.226;2023-05-15T11:37:49;4.65;;;4.15;;
21643;SDS011;10983;51.982;9.226;2023-05-15T11:40:19;6.25;;;3.72;;
21643;SDS011;10983;51.982;9.226;2023-05-15T11:42:59;3.25;;;2.45;;
21643;SDS011;10983;51.982;9.226;2023-05-15T11:45:28;2.75;;;2.50;;
21643;SDS011;10983;51.982;9.226;2023-05-15T11:47:58;5.35;;;4.05;;
21643;SDS011;10983;51.982;9.226;2023-05-15T11:50:29;4.78;;;3.47;;
21643;SDS011;10983;51.982;9.226;2023-05-15T11:53:04;12.07;;;6.15;;
21643;SDS011;10983;51.982;9.226;2023-05-15T11:55:35;6.22;;;4.07;;
21643;SDS011;10983;51.982;9.226;2023-05-15T11:58:09;9.25;;;4.68;;
21643;SDS011;10983;51.982;9.226;2023-05-15T12:00:37;6.72;;;4.80;;
21643;SDS011;10983;51.982;9.226;2023-05-15T12:03:05;3.55;;;3.25;;
21643;SDS011;10983;51.982;9.226;2023-05-15T12:05:43;6.93;;;4.93;;
21643;SDS011;10983;51.982;9.226;2023-05-15T12:08:25;4.38;;;3.83;;
21643;SDS011;10983;51.982;9.226;2023-05-15T12:10:58;8.30;;;4.90;;
21643;SDS011;10983;51.982;9.226;2023-05-15T12:13:28;5.93;;;3.03;;
21643;SDS011;10983;51.982;9.226;2023-05-15T12:15:56;7.18;;;4.90;;
21643;SDS011;10983;51.982;9.226;2023-05-15T12:18:24;6.28;;;4.57;;
21643;SDS011;10983;51.982;9.226;2023-05-15T12:21:53;2.60;;;0.52;;
21643;SDS011;10983;51.982;9.226;2023-05-15T12:25:20;7.50;;;4.10;;
21643;SDS011;10983;51.982;9.226;2023-05-15T12:28:49;3.72;;;3.42;;
21643;SDS011;10983;51.982;9.226;2023-05-15T12:32:08;4.70;;;4.32;;
21643;SDS011;10983;51.982;9.226;2023-05-15T12:35:36;4.45;;;4.10;;
21643;SDS011;10983;51.982;9.226;2023-05-15T12:39:08;2.20;;;2.00;;
21643;SDS011;10983;51.982;9.226;2023-05-15T12:42:16;5.20;;;2.72;;
21643;SDS011;10983;51.982;9.226;2023-05-15T12:45:40;2.10;;;1.90;;
21643;SDS011;10983;51.982;9.226;2023-05-15T12:49:07;1.35;;;1.00;;
21643;SDS011;10983;51.982;9.226;2023-05-15T12:52:39;2.40;;;2.22;;
21643;SDS011;10983;51.982;9.226;2023-05-15T12:55:22;1.83;;;1.70;;
21643;SDS011;10983;51.982;9.226;2023-05-15T12:58:50;6.40;;;4.53;;
21643;SDS011;10983;51.982;9.226;2023-05-15T13:02:17;7.30;;;4.43;;
21643;SDS011;10983;51.982;9.226;2023-05-15T13:05:46;4.45;;;3.92;;
21643;SDS011;10983;51.982;9.226;2023-05-15T13:09:13;8.65;;;5.18;;
21643;SDS011;10983;51.982;9.226;2023-05-15T13:12:41;8.73;;;5.00;;
21643;SDS011;10983;51.982;9.226;2023-05-15T13:16:20;4.88;;;4.32;;
21643;SDS011;10983;51.982;9.226;2023-05-15T13:19:47;10.43;;;4.97;;
21643;SDS011;10983;51.982;9.226;2023-05-15T13:23:16;3.75;;;2.67;;
21643;SDS011;10983;51.982;9.226;2023-05-15T13:26:43;3.42;;;3.13;;
21643;SDS011;10983;51.982;9.226;2023-05-15T13:30:09;3.83;;;3.28;;
21643;SDS011;10983;51.982;9.226;2023-05-15T13:33:36;12.95;;;7.35;;
21643;SDS011;10983;51.982;9.226;2023-05-15T13:37:02;9.45;;;7.38;;
21643;SDS011;10983;51.982;9.226;2023-05-15T13:40:29;6.15;;;5.47;;
21643;SDS011;10983;51.982;9.226;2023-05-15T13:43:56;7.05;;;4.40;;
21643;SDS011;10983;51.982;9.226;2023-05-15T13:47:05;4.40;;;4.00;;
21643;SDS011;10983;51.982;9.226;2023-05-15T13:49:34;1.75;;;1.65;;
21643;SDS011;10983;51.982;9.226;2023-05-15T13:52:02;2.28;;;2.08;;
21643;SDS011;10983;51.982;9.226;2023-05-15T13:54:30;4.65;;;1.25;;
21643;SDS011;10983;51.982;9.226;2023-05-15T13:56:58;2.22;;;2.03;;
21643;SDS011;10983;51.982;9.226;2023-05-15T13:59:27;6.30;;;3.40;;
21643;SDS011;10983;51.982;9.226;2023-05-15T14:01:55;2.30;;;2.15;;
21643;SDS011;10983;51.982;9.226;2023-05-15T14:04:22;2.95;;;1.65;;
21643;SDS011;10983;51.982;9.226;2023-05-15T14:06:51;6.60;;;4.03;;
21643;SDS011;10983;51.982;9.226;2023-05-15T14:09:18;2.70;;;2.28;;
21643;SDS011;10983;51.982;9.226;2023-05-15T14:11:46;4.13;;;1.65;;
21643;SDS011;10983;51.982;9.226;2023-05-15T14:14:13;2.38;;;2.22;;
21643;SDS011;10983;51.982;9.226;2023-05-15T14:16:41;2.50;;;2.33;;
21643;SDS011;10983;51.982;9.226;2023-05-15T14:19:09;1.80;;;1.70;;
21643;SDS011;10983;51.982;9.226;2023-05-15T14:21:37;5.55;;;3.65;;
21643;SDS011;10983;51.982;9.226;2023-05-15T14:24:07;1.75;;;1.33;;
21643;SDS011;10983;51.982;9.226;2023-05-15T14:26:35;2.67;;;2.40;;
21643;SDS011;10983;51.982;9.226;2023-05-15T14:29:02;2.40;;;2.22;;
21643;SDS011;10983;51.982;9.226;2023-05-15T14:31:29;2.67;;;2.50;;
21643;SDS011;10983;51.982;9.226;2023-05-15T14:34:00;1.45;;;1.35;;
21643;SDS011;10983;51.982;9.226;2023-05-15T14:36:29;0.65;;;0.65;;
21643;SDS011;10983;51.982;9.226;2023-05-15T14:38:57;1.17;;;0.82;;
21643;SDS011;10983;51.982;9.226;2023-05-15T14:41:27;0.32;;;0.32;;
21643;SDS011;10983;51.982;9.226;2023-05-15T14:43:54;0.17;;;0.17;;
21643;SDS011;10983;51.982;9.226;2023-05-15T14:46:21;0.30;;;0.30;;
21643;SDS011;10983;51.982;9.226;2023-05-15T14:48:49;1.98;;;1.88;;
21643;SDS011;10983;51.982;9.226;2023-05-15T14:51:16;0.00;;;0.00;;
21643;SDS011;10983;51.982;9.226;2023-05-15T14:53:45;3.00;;;1.88;;
21643;SDS011;10983;51.982;9.226;2023-05-15T14:56:12;0.52;;;0.45;;
21643;SDS011;10983;51.982;9.226;2023-05-15T14:58:42;0.00;;;0.00;;
21643;SDS011;10983;51.982;9.226;2023-05-15T15:01:10;0.95;;;0.93;;
21643;SDS011;10983;51.982;9.226;2023-05-15T15:03:38;0.75;;;0.75;;
21643;SDS011;10983;51.982;9.226;2023-05-15T15:06:07;1.02;;;1.02;;
21643;SDS011;10983;51.982;9.226;2023-05-15T15:08:35;0.73;;;0.55;;
21643;SDS011;10983;51.982;9.226;2023-05-15T15:11:02;3.80;;;2.03;;
21643;SDS011;10983;51.982;9.226;2023-05-15T15:13:30;0.65;;;0.65;;
21643;SDS011;10983;51.982;9.226;2023-05-15T15:15:59;0.45;;;0.45;;
21643;SDS011;10983;51.982;9.226;2023-05-15T15:18:26;0.25;;;0.25;;
21643;SDS011;10983;51.982;9.226;2023-05-15T15:20:54;0.80;;;0.75;;
21643;SDS011;10983;51.982;9.226;2023-05-15T15:23:21;0.57;;;0.57;;
21643;SDS011;10983;51.982;9.226;2023-05-15T15:25:49;0.82;;;0.80;;
21643;SDS011;10983;51.982;9.226;2023-05-15T15:28:16;0.10;;;0.10;;
21643;SDS011;10983;51.982;9.226;2023-05-15T15:30:44;0.22;;;0.22;;